Time;durP1;ratioP1;P1;durP2;ratioP2;P2;SDS_P1;SDS_P2;PMS_P1;PMS_P2;Temp;Humidity;BMP_temperature;BMP_pressure;BME280_temperature;BME280_humidity;BME280_pressure;Samples;Min_cycle;Max_cycle;Signal;HPM_P1;HPM_P2
2021/12/24 00:00:33;;;;;;;8.32;2.90;;;;;;;-0.90;31.58;98600.44;5034041;28;20457;-73
2021/12/24 00:02:59;;;;;;;5.80;2.90;;;;;;;-0.96;31.31;98606.09;5066466;28;20037;-73
2021/12/24 00:05:25;;;;;;;4.50;3.07;;;;;;;-0.91;31.59;98592.72;5033035;28;20639;-73
2021/12/24 00:07:52;;;;;;;3.50;2.50;;;;;;;-0.85;30.95;98603.53;5049721;28;20075;-72
2021/12/24 00:10:18;;;;;;;6.40;3.13;;;;;;;-0.96;31.39;98587.00;5050541;28;20797;-72
2021/12/24 00:12:48;;;;;;;5.87;3.43;;;;;;;-1.23;31.08;98579.41;5050816;28;20075;-73
2021/12/24 00:15:48;;;;;;;2.53;2.20;;;;;;;-0.75;31.40;98575.84;5051401;28;20283;-73
2021/12/24 00:18:19;;;;;;;2.90;2.60;;;;;;;-0.84;30.77;98597.38;5066482;28;20046;-72
2021/12/24 00:37:19;;;;;;;4.83;3.00;;;;;;;-0.65;30.51;98589.88;5038909;28;20375;-73
2021/12/24 00:40:13;;;;;;;3.30;2.72;;;;;;;-0.29;30.30;98576.66;5070132;28;20378;-72
2021/12/24 00:42:43;;;;;;;3.93;2.80;;;;;;;-0.30;30.36;98595.88;5069487;28;20481;-72
2021/12/24 00:45:09;;;;;;;6.97;2.95;;;;;;;-0.57;30.69;98555.41;5053412;28;20765;-72
2021/12/24 00:47:36;;;;;;;3.83;2.67;;;;;;;-0.47;30.77;98603.28;5053259;28;20052;-73
2021/12/24 00:50:07;;;;;;;4.87;3.20;;;;;;;-0.26;30.59;98599.91;5052715;28;20336;-72
2021/12/24 00:52:46;;;;;;;4.40;3.30;;;;;;;-0.31;30.53;98588.16;5069569;28;20033;-72
2021/12/24 00:55:14;;;;;;;4.73;3.17;;;;;;;-0.14;30.23;98598.16;5054541;28;20312;-72
2021/12/24 00:57:50;;;;;;;7.73;3.17;;;;;;;0.50;29.95;98596.59;5036731;28;20321;-71
2021/12/24 01:00:42;;;;;;;5.97;3.10;;;;;;;0.42;30.08;98578.06;5052315;28;20786;-72
2021/12/24 01:03:11;;;;;;;4.40;2.27;;;;;;;0.03;30.58;98591.63;5068386;28;20337;-71
2021/12/24 01:05:38;;;;;;;5.53;2.77;;;;;;;-0.54;30.79;98581.22;5052908;28;20282;-72
2021/12/24 01:08:06;;;;;;;4.13;3.00;;;;;;;-0.22;30.72;98572.66;5069101;28;20279;-73
2021/12/24 01:10:49;;;;;;;5.73;3.00;;;;;;;-0.01;31.10;98576.22;5035713;28;20385;-72
2021/12/24 01:13:16;;;;;;;3.20;2.57;;;;;;;-0.31;30.95;98578.53;5035474;28;20798;-72
2021/12/24 01:15:53;;;;;;;8.00;2.77;;;;;;;-0.81;31.06;98567.63;5053272;28;20309;-72
2021/12/24 01:18:26;;;;;;;3.30;2.60;;;;;;;-0.44;31.34;98559.56;5073268;28;20282;-72
2021/12/24 01:21:03;;;;;;;5.03;3.43;;;;;;;-0.73;31.10;98560.06;5073251;28;20356;-73
2021/12/24 01:23:48;;;;;;;4.30;2.83;;;;;;;-0.65;30.65;98553.38;5040718;28;20287;-73
2021/12/24 01:26:35;;;;;;;3.73;2.80;;;;;;;-0.74;30.65;98532.38;5073282;28;20337;-72
2021/12/24 01:40:23;;;;;;;5.33;2.93;;;;;;;-1.18;31.30;98522.63;5087767;28;20362;-74
2021/12/24 01:42:50;;;;;;;4.40;2.97;;;;;;;-0.73;31.10;98534.00;5073686;28;20381;-73
2021/12/24 01:45:16;;;;;;;4.77;3.10;;;;;;;-1.21;30.73;98517.63;5034183;28;20279;-68
2021/12/24 01:47:41;;;;;;;4.47;3.07;;;;;;;-1.10;31.02;98542.88;5068652;28;20279;-69
2021/12/24 01:50:08;;;;;;;4.30;3.00;;;;;;;-0.87;31.35;98527.22;5056290;28;20054;-69
2021/12/24 01:52:34;;;;;;;4.70;2.80;;;;;;;-0.92;30.91;98542.38;5072636;28;20660;-70
2021/12/24 01:55:00;;;;;;;5.33;2.63;;;;;;;-0.68;30.77;98566.63;5040587;28;20305;-72
2021/12/24 01:57:31;;;;;;;5.30;2.87;;;;;;;-1.12;30.75;98536.97;5072807;28;20051;-69
2021/12/24 01:59:58;;;;;;;11.03;3.07;;;;;;;-0.53;30.56;98559.41;5056371;28;20330;-70
2021/12/24 02:02:24;;;;;;;5.07;2.97;;;;;;;-1.17;30.73;98555.53;5055569;28;20648;-70
2021/12/24 02:04:50;;;;;;;3.93;3.03;;;;;;;-0.97;30.66;98541.06;5055189;28;20286;-70
2021/12/24 02:07:16;;;;;;;4.60;2.73;;;;;;;-1.13;30.36;98517.91;5066418;28;20048;-69
2021/12/24 02:09:42;;;;;;;4.10;2.73;;;;;;;-1.13;30.46;98540.50;5078815;28;20070;-68
2021/12/24 02:12:10;;;;;;;6.40;3.43;;;;;;;-1.32;31.07;98528.00;5091042;28;20286;-69
2021/12/24 02:14:38;;;;;;;11.30;2.83;;;;;;;-1.29;30.93;98537.38;5075946;28;20376;-69
2021/12/24 02:28:24;;;;;;;5.97;2.63;;;;;;;-1.46;30.76;98517.75;5058156;28;20297;-68
2021/12/24 02:30:50;;;;;;;6.07;3.43;;;;;;;-1.49;30.88;98509.34;5076001;28;20765;-70
2021/12/24 02:33:16;;;;;;;7.03;3.33;;;;;;;-1.32;31.20;98503.75;5054793;28;20290;-70
2021/12/24 02:35:42;;;;;;;3.43;2.50;;;;;;;-1.44;30.69;98531.50;5091533;28;20326;-69
2021/12/24 02:38:08;;;;;;;9.13;3.70;;;;;;;-1.36;30.97;98510.94;5074931;28;20831;-69
2021/12/24 02:40:34;;;;;;;2.87;2.40;;;;;;;-1.02;30.89;98515.34;5058346;28;20078;-69
2021/12/24 02:43:01;;;;;;;5.37;2.67;;;;;;;-1.08;30.87;98513.19;5055862;28;20462;-72
2021/12/24 02:45:29;;;;;;;10.03;3.10;;;;;;;-0.69;30.66;98498.97;5073545;28;20285;-69
2021/12/24 02:56:09;;;;;;;4.20;2.77;;;;;;;-1.20;30.83;98472.41;5037511;28;20678;-71
2021/12/24 02:58:43;;;;;;;3.73;2.77;;;;;;;-0.41;30.50;98468.06;5035220;28;20833;-70
2021/12/24 03:01:15;;;;;;;6.53;3.73;;;;;;;-0.51;30.80;98463.66;5051625;28;20297;-70
2021/12/24 03:03:47;;;;;;;5.23;2.80;;;;;;;-0.94;30.85;98458.25;5036237;28;20283;-70
2021/12/24 03:06:41;;;;;;;7.70;3.90;;;;;;;-0.11;30.54;98475.28;5053048;28;20331;-70
2021/12/24 03:09:12;;;;;;;4.27;2.63;;;;;;;-0.39;30.63;98470.53;5053097;28;20321;-70
2021/12/24 03:11:38;;;;;;;4.73;3.10;;;;;;;-1.12;30.53;98433.59;5069847;28;20329;-70
2021/12/24 03:14:06;;;;;;;3.67;2.63;;;;;;;-0.31;30.96;98462.97;5069710;28;20325;-70
2021/12/24 03:16:35;;;;;;;5.40;3.10;;;;;;;-0.88;30.71;98454.38;5069414;28;20396;-70
2021/12/24 03:19:01;;;;;;;7.53;3.30;;;;;;;-0.92;31.10;98463.38;5052997;28;20298;-71
2021/12/24 03:21:36;;;;;;;8.17;3.40;;;;;;;-0.24;30.90;98464.97;5036700;28;20334;-70
2021/12/24 03:26:29;;;;;;;8.33;4.53;;;;;;;-0.80;30.89;98481.50;5036363;28;20282;-70
2021/12/24 03:28:55;;;;;;;4.93;2.70;;;;;;;-1.07;31.20;98452.31;5069468;28;20059;-70
2021/12/24 03:31:21;;;;;;;4.73;2.90;;;;;;;-0.87;31.02;98443.00;5036188;28;20860;-70
2021/12/24 03:33:48;;;;;;;4.93;2.87;;;;;;;-0.65;30.54;98461.28;5036143;28;20071;-70
2021/12/24 03:36:15;;;;;;;7.70;2.90;;;;;;;-1.01;30.71;98420.59;5052918;28;20131;-70
2021/12/24 03:38:41;;;;;;;5.57;3.17;;;;;;;-0.62;30.65;98450.63;5051894;28;20840;-70
2021/12/24 03:41:07;;;;;;;8.83;4.17;;;;;;;-0.84;30.78;98461.84;5035724;28;20279;-70
2021/12/24 03:43:33;;;;;;;4.00;2.73;;;;;;;-0.72;30.81;98468.72;5035750;28;20143;-71
2021/12/24 03:46:07;;;;;;;5.53;3.17;;;;;;;-0.86;30.74;98460.31;5035965;28;20044;-70
2021/12/24 03:56:32;;;;;;;5.57;2.87;;;;;;;0.05;30.27;98448.81;5052363;28;20393;-70
2021/12/24 03:58:59;;;;;;;7.50;4.30;;;;;;;-0.84;30.61;98461.84;5052441;28;20817;-69
2021/12/24 04:01:45;;;;;;;4.67;3.33;;;;;;;-0.93;30.60;98448.69;5054291;28;20283;-70
2021/12/24 04:04:29;;;;;;;3.50;2.67;;;;;;;-0.97;30.79;98442.03;5054922;28;20330;-70
2021/12/24 04:07:14;;;;;;;3.73;2.93;;;;;;;-0.58;30.53;98434.63;5040241;28;20375;-70
2021/12/24 04:10:05;;;;;;;7.83;3.37;;;;;;;-0.89;30.66;98430.09;5040664;28;20274;-70
2021/12/24 04:13:03;;;;;;;6.27;3.50;;;;;;;-0.99;30.67;98436.94;5045814;28;20928;-70
2021/12/24 04:15:29;;;;;;;4.60;3.07;;;;;;;-0.84;30.71;98419.31;5035696;28;20374;-70
2021/12/24 04:17:55;;;;;;;4.53;2.83;;;;;;;-0.94;30.62;98429.59;5018780;28;20067;-71
2021/12/24 04:25:49;;;;;;;4.73;3.23;;;;;;;-0.87;30.62;98443.00;5063379;28;20321;-64
2021/12/24 04:28:15;;;;;;;4.27;2.80;;;;;;;-0.79;30.95;98440.66;5088371;28;20329;-66
2021/12/24 04:30:47;;;;;;;5.37;3.20;;;;;;;-0.79;31.02;98459.72;5084215;28;20127;-64
2021/12/24 04:33:26;;;;;;;6.00;3.57;;;;;;;-0.78;30.91;98411.84;5067523;28;20048;-64
2021/12/24 04:38:33;;;;;;;2.73;2.17;;;;;;;-0.56;30.84;98411.88;5067239;28;20647;-64
2021/12/24 04:52:03;;;;;;;6.07;3.50;;;;;;;-0.57;30.75;98404.19;5068566;28;20758;-65
2021/12/24 05:05:25;;;;;;;5.47;3.13;;;;;;;-0.14;30.48;98400.66;5067953;28;20297;-64
2021/12/24 05:10:40;;;;;;;3.77;3.00;;;;;;;-0.05;30.72;98391.28;5053112;28;20301;-65
2021/12/24 05:13:13;;;;;;;3.60;2.60;;;;;;;0.30;30.67;98396.28;5067679;28;20325;-65
2021/12/24 05:16:39;;;;;;;4.33;3.17;;;;;;;-0.17;30.74;98413.16;5053479;28;20298;-64
2021/12/24 05:22:05;;;;;;;4.97;3.20;;;;;;;-0.22;30.72;98386.59;5070982;28;20287;-66
2021/12/24 05:24:34;;;;;;;7.07;3.53;;;;;;;-0.23;30.62;98370.09;5053980;28;20289;-66
2021/12/24 05:27:03;;;;;;;6.30;4.03;;;;;;;-0.26;31.16;98343.41;5088006;28;20277;-66
2021/12/24 05:29:31;;;;;;;3.53;2.93;;;;;;;-0.53;31.03;98338.63;5088367;28;20807;-66
2021/12/24 05:31:58;;;;;;;4.57;2.80;;;;;;;-0.17;30.83;98393.09;5081633;28;20271;-67
2021/12/24 05:34:24;;;;;;;7.70;2.70;;;;;;;-0.42;30.94;98350.81;5086405;28;20670;-66
2021/12/24 05:36:52;;;;;;;7.67;3.63;;;;;;;-0.11;31.12;98373.53;5086605;28;20298;-65
2021/12/24 05:39:22;;;;;;;4.23;2.97;;;;;;;-0.14;30.98;98382.41;5084147;28;20730;-65
2021/12/24 05:41:49;;;;;;;6.57;3.35;;;;;;;-0.16;30.73;98386.94;5080760;28;20271;-65
2021/12/24 05:44:17;;;;;;;4.10;2.67;;;;;;;-0.14;30.82;98379.00;5053165;28;20051;-65
2021/12/24 05:46:45;;;;;;;4.23;2.70;;;;;;;0.09;30.82;98377.97;5066908;28;20295;-65
2021/12/24 05:49:34;;;;;;;4.40;2.90;;;;;;;0.02;30.68;98387.22;5068947;28;20275;-65
2021/12/24 05:52:19;;;;;;;3.90;2.70;;;;;;;-0.31;30.63;98359.44;5053817;28;20293;-65
2021/12/24 05:55:17;;;;;;;3.40;2.77;;;;;;;-0.11;30.56;98340.41;5059245;28;20294;-65
2021/12/24 05:57:44;;;;;;;2.83;2.37;;;;;;;-0.03;30.61;98377.16;5052064;28;20302;-65
2021/12/24 06:00:11;;;;;;;5.77;3.07;;;;;;;0.03;31.07;98363.63;5050948;28;20283;-65
2021/12/24 06:02:41;;;;;;;4.57;3.30;;;;;;;-0.20;31.20;98382.91;5037202;28;20427;-65
2021/12/24 06:05:08;;;;;;;3.20;2.47;;;;;;;0.28;30.78;98385.97;5072185;28;20336;-65
2021/12/24 06:07:34;;;;;;;4.63;2.93;;;;;;;0.03;30.94;98402.75;5073622;28;20347;-63
2021/12/24 06:10:00;;;;;;;5.03;3.17;;;;;;;0.22;31.31;98388.22;5072008;28;20563;-65
2021/12/24 06:12:26;;;;;;;3.90;2.83;;;;;;;0.07;30.78;98386.84;5070574;28;20139;-67
2021/12/24 06:14:55;;;;;;;5.27;3.57;;;;;;;0.11;30.81;98376.03;5052872;28;20373;-68
2021/12/24 06:17:22;;;;;;;6.47;3.80;;;;;;;0.26;30.58;98374.84;5072390;28;20138;-66
2021/12/24 06:19:49;;;;;;;4.27;3.37;;;;;;;0.20;30.86;98387.53;5072302;28;20723;-66
2021/12/24 06:22:15;;;;;;;4.97;3.20;;;;;;;0.03;30.71;98378.47;5071003;28;20322;-67
2021/12/24 06:24:41;;;;;;;6.97;3.00;;;;;;;0.15;30.81;98385.31;5070581;28;20321;-66
2021/12/24 06:27:07;;;;;;;5.50;2.87;;;;;;;-0.01;30.99;98375.28;5072103;28;20124;-65
2021/12/24 06:29:33;;;;;;;4.20;2.90;;;;;;;0.05;30.77;98394.81;5072675;28;20082;-66
2021/12/24 06:31:58;;;;;;;4.93;3.40;;;;;;;0.16;30.97;98404.38;5072329;28;20052;-66
2021/12/24 06:34:26;;;;;;;5.40;3.37;;;;;;;-0.01;31.10;98388.31;5054375;28;20098;-66
2021/12/24 06:36:53;;;;;;;7.90;3.23;;;;;;;0.14;30.90;98383.63;5082384;28;20097;-66
2021/12/24 06:39:19;;;;;;;6.40;3.33;;;;;;;0.09;31.05;98414.50;5089676;28;20131;-66
2021/12/24 06:41:44;;;;;;;5.77;3.27;;;;;;;0.15;30.56;98407.97;5088765;28;20123;-66
2021/12/24 06:44:12;;;;;;;4.23;2.63;;;;;;;0.22;30.54;98399.50;5086631;28;20144;-69
2021/12/24 06:46:42;;;;;;;4.30;3.03;;;;;;;0.73;30.43;98400.47;5087675;28;20048;-67
2021/12/24 06:49:09;;;;;;;5.47;3.28;;;;;;;0.52;30.66;98393.59;5087525;28;20051;-68
2021/12/24 06:51:35;;;;;;;7.07;3.20;;;;;;;0.13;30.63;98415.06;5088052;28;20101;-67
2021/12/24 06:54:00;;;;;;;4.07;2.73;;;;;;;0.18;30.57;98410.31;5070529;28;20036;-66
2021/12/24 06:56:27;;;;;;;4.13;2.53;;;;;;;0.27;30.38;98412.19;5088044;28;20054;-66
2021/12/24 06:58:53;;;;;;;4.67;2.80;;;;;;;0.29;30.41;98392.00;5090888;28;20044;-67
2021/12/24 07:01:19;;;;;;;8.60;3.93;;;;;;;0.19;30.53;98383.25;5091283;28;20048;-67
2021/12/24 07:03:46;;;;;;;5.80;3.67;;;;;;;0.28;30.31;98419.09;5057760;28;20043;-67
2021/12/24 07:06:12;;;;;;;5.80;3.63;;;;;;;0.26;30.60;98405.31;5092076;28;20503;-66
2021/12/24 07:08:37;;;;;;;6.97;3.60;;;;;;;0.13;30.43;98410.69;5090416;28;20062;-66
2021/12/24 07:11:03;;;;;;;3.23;2.60;;;;;;;0.25;30.54;98419.34;5092161;28;20043;-67
2021/12/24 07:13:29;;;;;;;5.10;2.90;;;;;;;0.15;30.70;98423.63;5089083;28;20109;-68
2021/12/24 07:15:55;;;;;;;4.47;3.20;;;;;;;0.05;30.67;98415.69;5056848;28;20044;-67
2021/12/24 07:18:21;;;;;;;3.93;2.57;;;;;;;0.01;31.11;98390.81;5107772;28;20043;-67
2021/12/24 07:20:47;;;;;;;5.93;3.37;;;;;;;0.13;31.14;98404.63;5090665;28;20051;-68
2021/12/24 07:23:15;;;;;;;4.40;3.57;;;;;;;-0.11;30.60;98347.44;5073767;28;20052;-67
2021/12/24 07:25:40;;;;;;;7.00;3.03;;;;;;;0.15;30.74;98392.31;5091561;28;20560;-67
2021/12/24 07:28:06;;;;;;;2.40;2.23;;;;;;;0.30;31.09;98384.06;5091569;28;20040;-68
2021/12/24 07:30:33;;;;;;;5.00;2.70;;;;;;;0.58;31.02;98390.47;5090482;28;20142;-68
2021/12/24 07:32:58;;;;;;;3.87;2.70;;;;;;;0.41;30.51;98388.41;5090080;28;20122;-68
2021/12/24 07:35:24;;;;;;;9.23;2.57;;;;;;;0.38;30.67;98388.66;5089925;28;20130;-68
2021/12/24 07:37:50;;;;;;;7.43;3.00;;;;;;;0.46;30.44;98367.97;5091275;28;20052;-68
2021/12/24 07:40:18;;;;;;;4.13;2.60;;;;;;;0.40;30.16;98392.78;5091457;28;20517;-68
2021/12/24 07:42:45;;;;;;;4.80;3.27;;;;;;;0.56;30.23;98392.38;5091227;28;20126;-67
2021/12/24 07:45:15;;;;;;;3.73;2.60;;;;;;;0.96;30.19;98390.72;5090720;28;20492;-67
2021/12/24 07:47:42;;;;;;;3.97;2.97;;;;;;;0.49;30.00;98397.28;5090954;28;20047;-67
2021/12/24 07:53:02;;;;;;;4.50;2.47;;;;;;;0.48;29.95;98410.47;5053077;28;20048;-68
2021/12/24 07:55:28;;;;;;;4.90;3.33;;;;;;;0.40;30.46;98368.47;5090925;28;20077;-67
2021/12/24 07:57:54;;;;;;;3.63;2.77;;;;;;;0.36;30.08;98401.00;5072769;28;20082;-66
2021/12/24 08:00:23;;;;;;;2.63;2.27;;;;;;;0.44;30.18;98399.44;5090742;28;20492;-67
2021/12/24 08:02:49;;;;;;;3.80;2.80;;;;;;;0.17;30.32;98351.25;5089122;28;20543;-66
2021/12/24 08:05:18;;;;;;;3.30;2.50;;;;;;;0.30;30.07;98396.28;5089724;28;20047;-71
2021/12/24 08:07:44;;;;;;;11.60;3.73;;;;;;;0.14;30.55;98396.69;5072948;28;20088;-67
2021/12/24 08:10:10;;;;;;;2.80;2.23;;;;;;;0.35;30.18;98381.06;5089625;28;20052;-67
2021/12/24 08:12:35;;;;;;;5.10;3.37;;;;;;;0.26;30.13;98381.81;5089264;28;20527;-66
2021/12/24 08:15:06;;;;;;;5.47;3.37;;;;;;;0.50;29.93;98374.59;5072582;28;20126;-67
2021/12/24 08:17:32;;;;;;;4.82;2.88;;;;;;;0.49;29.76;98394.66;5106588;28;20071;-67
2021/12/24 08:19:57;;;;;;;4.30;2.60;;;;;;;0.36;30.20;98352.22;5090772;28;20428;-66
2021/12/24 08:22:23;;;;;;;5.50;2.70;;;;;;;0.48;29.67;98411.28;5089239;28;20043;-67
2021/12/24 08:24:48;;;;;;;3.77;2.80;;;;;;;0.47;30.10;98365.22;5088703;28;20092;-66
2021/12/24 08:27:15;;;;;;;4.83;2.73;;;;;;;0.82;29.72;98367.50;5088893;28;20500;-67
2021/12/24 08:29:40;;;;;;;8.77;3.50;;;;;;;0.61;30.13;98371.91;5106046;28;20123;-66
2021/12/24 08:32:08;;;;;;;3.57;2.87;;;;;;;0.84;29.88;98360.38;5090491;28;20527;-66
2021/12/24 08:34:34;;;;;;;5.70;3.37;;;;;;;1.06;30.15;98373.31;5090855;28;20145;-67
2021/12/24 08:37:00;;;;;;;5.37;3.00;;;;;;;0.66;32.67;98339.22;5088939;28;20070;-67
2021/12/24 08:39:27;;;;;;;3.83;2.60;;;;;;;0.86;30.68;98329.75;5090345;28;20510;-67
2021/12/24 08:41:54;;;;;;;6.27;3.43;;;;;;;0.44;30.48;98244.53;5088965;28;20407;-67
2021/12/24 08:44:22;;;;;;;4.83;3.27;;;;;;;1.25;30.07;98353.31;5089262;28;20065;-65
2021/12/24 08:46:48;;;;;;;9.97;5.10;;;;;;;0.28;30.62;98351.22;5089768;28;20036;-67
2021/12/24 08:49:14;;;;;;;8.17;5.23;;;;;;;0.73;30.39;98350.00;5090179;28;20055;-66
2021/12/24 08:51:40;;;;;;;3.03;2.80;;;;;;;0.49;30.57;98354.66;5089265;28;20148;-67
2021/12/24 08:54:05;;;;;;;3.17;2.50;;;;;;;0.51;30.27;98353.56;5090551;28;20531;-65
2021/12/24 08:56:31;;;;;;;3.00;2.47;;;;;;;0.27;30.90;98313.81;5072222;28;20503;-65
2021/12/24 08:58:57;;;;;;;3.57;2.77;;;;;;;0.67;30.43;98316.56;5072270;28;20122;-65
2021/12/24 09:01:23;;;;;;;3.20;2.40;;;;;;;0.49;30.40;98332.00;5105688;28;20092;-64
2021/12/24 09:03:48;;;;;;;1.73;1.63;;;;;;;0.17;30.78;98336.41;5088521;28;20055;-65
2021/12/24 09:06:14;;;;;;;2.33;2.13;;;;;;;0.64;30.77;98340.31;5090071;28;20044;-65
2021/12/24 09:08:44;;;;;;;2.03;1.93;;;;;;;0.69;30.73;98338.97;5071565;28;20478;-64
2021/12/24 09:11:10;;;;;;;1.97;1.87;;;;;;;0.90;30.36;98381.63;5088291;28;20506;-64
2021/12/24 09:13:36;;;;;;;2.97;2.20;;;;;;;0.67;30.26;98334.84;5089783;28;20047;-64
2021/12/24 09:16:02;;;;;;;2.80;2.60;;;;;;;1.14;30.16;98339.47;5090107;28;20040;-64
2021/12/24 09:18:28;;;;;;;1.73;1.63;;;;;;;0.69;30.40;98325.91;5089824;28;20044;-65
2021/12/24 09:20:59;;;;;;;7.27;3.60;;;;;;;0.72;30.65;98317.00;5089566;28;20416;-66
2021/12/24 09:23:24;;;;;;;;;;;;;;;1.74;29.71;98310.63;5105587;28;20081;-65
2021/12/24 09:25:50;;;;;;;3.37;2.90;;;;;;;0.74;30.64;98312.50;5089274;28;19915;-65
2021/12/24 09:28:16;;;;;;;4.03;3.70;;;;;;;0.92;30.29;98311.72;5089545;28;20559;-64
2021/12/24 09:30:42;;;;;;;2.90;2.57;;;;;;;0.99;30.23;98352.09;5089384;28;20048;-64
2021/12/24 09:33:08;;;;;;;2.87;1.97;;;;;;;1.15;29.90;98339.34;5089759;28;20488;-64
2021/12/24 09:35:34;;;;;;;5.40;3.10;;;;;;;0.85;30.32;98315.00;5089517;28;20040;-65
2021/12/24 09:38:02;;;;;;;11.70;3.27;;;;;;;1.52;30.11;98295.97;5091358;28;20076;-64
2021/12/24 09:40:29;;;;;;;4.33;2.50;;;;;;;1.16;30.71;98301.81;5075209;28;20039;-65
2021/12/24 09:42:55;;;;;;;5.43;2.97;;;;;;;0.63;30.73;98278.59;5093237;28;20478;-65
2021/12/24 09:45:21;;;;;;;5.00;2.73;;;;;;;1.08;30.49;98311.25;5108949;28;20067;-64
2021/12/24 09:47:46;;;;;;;2.80;2.57;;;;;;;0.95;30.17;98316.72;5092229;28;20458;-65
2021/12/24 09:50:17;;;;;;;2.60;2.43;;;;;;;1.40;30.55;98323.22;5091990;28;20040;-64
2021/12/24 09:52:44;;;;;;;5.38;2.50;;;;;;;1.58;30.61;98295.44;5108551;28;20089;-65
2021/12/24 09:55:17;;;;;;;6.83;3.43;;;;;;;1.63;29.78;98302.88;5092902;28;20067;-65
2021/12/24 09:57:43;;;;;;;3.20;2.80;;;;;;;0.94;30.04;98291.53;5093049;28;20135;-65
2021/12/24 10:00:11;;;;;;;5.23;4.03;;;;;;;1.56;30.22;98314.88;5093002;28;20119;-64
2021/12/24 10:02:46;;;;;;;3.03;2.70;;;;;;;1.53;30.06;98289.81;5091703;28;20040;-65
2021/12/24 10:05:37;;;;;;;2.80;2.40;;;;;;;1.72;29.64;98320.41;5092745;28;20043;-65
2021/12/24 10:08:05;;;;;;;5.28;3.53;;;;;;;0.71;30.42;98284.81;5093415;28;20131;-65
2021/12/24 10:10:32;;;;;;;5.30;4.03;;;;;;;0.98;30.32;98298.16;5093819;28;20048;-65
2021/12/24 10:13:35;;;;;;;3.57;3.27;;;;;;;1.84;29.65;98294.94;5091954;28;20087;-63
2021/12/24 10:16:13;;;;;;;6.97;5.37;;;;;;;1.46;30.17;98295.72;5092124;28;20043;-64
2021/12/24 10:18:42;;;;;;;7.33;4.03;;;;;;;1.56;30.24;98293.94;5090857;28;20043;-65
2021/12/24 10:21:30;;;;;;;3.73;2.83;;;;;;;1.73;29.55;98298.50;5070539;28;20041;-65
2021/12/24 10:23:57;;;;;;;8.37;5.63;;;;;;;1.17;30.40;98281.72;5070693;28;20198;-65
2021/12/24 10:26:28;;;;;;;5.30;4.13;;;;;;;1.31;30.31;98310.94;5071422;28;20105;-65
2021/12/24 10:28:57;;;;;;;6.93;4.10;;;;;;;1.43;29.95;98264.59;5071595;28;20041;-65
2021/12/24 10:31:26;;;;;;;3.50;3.20;;;;;;;1.60;29.56;98296.16;5071974;28;20047;-65
2021/12/24 10:34:26;;;;;;;7.40;4.33;;;;;;;1.64;29.47;98283.63;5071820;28;20067;-65
2021/12/24 10:37:00;;;;;;;3.83;2.90;;;;;;;1.14;30.45;98245.38;5069996;28;20093;-65
2021/12/24 10:39:48;;;;;;;5.03;3.03;;;;;;;1.61;29.87;98294.38;5072060;28;20912;-64
2021/12/24 10:42:17;;;;;;;4.93;4.33;;;;;;;1.41;30.36;98283.03;5070668;28;20056;-65
2021/12/24 10:44:47;;;;;;;5.17;3.97;;;;;;;1.58;30.09;98284.16;5071907;28;20040;-65
2021/12/24 10:47:16;;;;;;;3.97;3.50;;;;;;;1.47;29.82;98292.13;5053720;28;20044;-65
2021/12/24 10:50:05;;;;;;;5.73;3.13;;;;;;;1.51;30.21;98270.78;5071963;28;20063;-65
2021/12/24 10:55:36;;;;;;;9.20;3.90;;;;;;;1.43;29.96;98265.41;5040674;28;20075;-65
2021/12/24 10:58:03;;;;;;;9.97;4.40;;;;;;;1.56;30.03;98266.00;5071614;28;20080;-66
2021/12/24 11:00:43;;;;;;;6.17;3.53;;;;;;;1.77;30.02;98279.78;5071195;28;20044;-66
2021/12/24 11:03:15;;;;;;;5.73;4.13;;;;;;;1.60;29.84;98258.69;5071114;28;20049;-67
2021/12/24 11:05:43;;;;;;;5.07;4.33;;;;;;;1.55;29.88;98271.38;5070286;28;20090;-66
2021/12/24 11:08:11;;;;;;;5.13;3.80;;;;;;;1.80;29.77;98264.78;5070332;28;20033;-65
2021/12/24 11:10:43;;;;;;;6.43;3.73;;;;;;;1.63;29.62;98256.63;5070081;28;20043;-66
2021/12/24 11:13:14;;;;;;;4.33;3.93;;;;;;;1.52;29.96;98300.41;5069930;28;20048;-65
2021/12/24 11:15:46;;;;;;;4.50;3.50;;;;;;;1.82;29.83;98257.59;5070344;28;20044;-67
2021/12/24 11:18:16;;;;;;;5.03;4.00;;;;;;;1.51;29.92;98246.41;5071671;28;20484;-66
2021/12/24 11:20:42;;;;;;;5.53;3.20;;;;;;;1.09;30.11;98237.13;5070829;28;20040;-65
2021/12/24 11:23:16;;;;;;;5.17;4.00;;;;;;;1.86;29.86;98236.25;5071160;28;20044;-66
2021/12/24 11:25:44;;;;;;;2.43;2.23;;;;;;;1.34;30.22;98260.97;5070766;28;20504;-66
2021/12/24 11:28:12;;;;;;;7.37;3.67;;;;;;;1.03;30.80;98242.88;5071136;28;20086;-65
2021/12/24 11:30:43;;;;;;;4.87;3.80;;;;;;;1.63;30.61;98251.41;5071641;28;20438;-65
2021/12/24 11:33:26;;;;;;;13.23;4.07;;;;;;;1.92;30.21;98254.03;5090391;28;20050;-66
2021/12/24 11:35:53;;;;;;;4.90;4.13;;;;;;;1.44;30.04;98258.41;5106518;28;20044;-66
2021/12/24 11:38:23;;;;;;;8.77;4.67;;;;;;;1.63;30.35;98245.31;5106925;28;20040;-66
2021/12/24 11:40:51;;;;;;;3.78;3.40;;;;;;;1.59;30.10;98246.56;5091102;28;20040;-65
2021/12/24 11:43:23;;;;;;;4.07;2.77;;;;;;;1.82;30.13;98242.72;5089774;28;20526;-65
2021/12/24 11:45:50;;;;;;;3.57;3.10;;;;;;;1.30;30.29;98237.84;5090001;28;20091;-66
2021/12/24 11:48:15;;;;;;;4.47;3.00;;;;;;;1.11;30.30;98241.25;5091223;28;20147;-66
2021/12/24 11:50:41;;;;;;;3.53;2.87;;;;;;;1.02;30.58;98264.72;5090722;28;20559;-65
2021/12/24 11:53:11;;;;;;;5.30;3.40;;;;;;;1.38;30.72;98262.34;5106980;28;20444;-65
2021/12/24 11:55:40;;;;;;;7.83;2.97;;;;;;;1.35;31.03;98225.22;5089485;28;20067;-64
2021/12/24 11:58:18;;;;;;;6.00;3.40;;;;;;;1.49;30.68;98243.13;5091498;28;20054;-64
2021/12/24 12:00:51;;;;;;;3.60;3.17;;;;;;;1.30;30.40;98211.69;5071889;28;20571;-66
2021/12/24 12:03:36;;;;;;;2.73;2.53;;;;;;;1.67;30.42;98270.28;5090990;28;20435;-66
2021/12/24 12:06:09;;;;;;;5.40;3.53;;;;;;;1.56;30.75;98265.16;5091241;28;20051;-66
2021/12/24 12:08:39;;;;;;;3.17;2.87;;;;;;;1.51;30.62;98259.50;5091105;28;20035;-66
2021/12/24 12:11:06;;;;;;;8.00;4.47;;;;;;;0.74;30.82;98228.88;5089553;28;20040;-65
2021/12/24 12:13:57;;;;;;;15.63;3.90;;;;;;;1.88;30.29;98251.84;5089715;28;20048;-65
2021/12/24 12:16:28;;;;;;;;;;;;;;;1.67;30.07;98246.72;5088331;28;20044;-65
2021/12/24 12:19:11;;;;;;;;;;;;;;;1.65;30.15;98220.69;5089992;28;19926;-66
2021/12/24 12:21:44;;;;;;;4.27;3.13;;;;;;;0.72;31.07;98233.41;5072635;28;19920;-64
2021/12/24 12:26:51;;;;;;;12.33;4.97;;;;;;;1.09;31.23;98231.88;5090455;28;20039;-65
2021/12/24 12:29:30;;;;;;;5.07;3.57;;;;;;;1.30;30.94;98232.63;5090632;28;20083;-65
2021/12/24 12:32:04;;;;;;;3.43;2.77;;;;;;;1.51;30.51;98233.34;5090661;28;20503;-65
2021/12/24 12:34:39;;;;;;;6.40;4.50;;;;;;;1.53;30.50;98226.19;5072739;28;20055;-65
2021/12/24 12:37:14;;;;;;;6.50;4.07;;;;;;;1.47;30.61;98245.88;5106256;28;20040;-65
2021/12/24 12:39:40;;;;;;;3.40;3.20;;;;;;;1.01;30.72;98219.50;5090724;28;20040;-65
2021/12/24 12:42:06;;;;;;;4.27;3.87;;;;;;;0.79;30.94;98235.34;5091103;28;20062;-64
2021/12/24 12:44:33;;;;;;;7.70;4.03;;;;;;;1.18;31.01;98234.53;5090338;28;20051;-65
2021/12/24 12:47:13;;;;;;;18.23;3.03;;;;;;;0.73;30.86;98201.91;5052523;28;20511;-66
2021/12/24 12:49:39;;;;;;;15.95;4.70;;;;;;;0.72;31.08;98234.25;5069196;28;20044;-64
2021/12/24 12:52:20;;;;;;;4.50;3.47;;;;;;;1.35;30.80;98225.22;5086109;28;20101;-66
2021/12/24 12:54:48;;;;;;;5.93;2.93;;;;;;;1.30;30.50;98207.31;5069864;28;20033;-65
2021/12/24 12:57:18;;;;;;;3.47;3.23;;;;;;;1.74;30.40;98237.34;5068745;28;20154;-65
2021/12/24 13:00:12;;;;;;;3.17;2.87;;;;;;;1.64;30.04;98231.31;5069935;28;20048;-65
2021/12/24 13:02:56;;;;;;;6.93;4.53;;;;;;;1.40;30.72;98226.44;5069691;28;20040;-63
2021/12/24 13:05:22;;;;;;;12.53;3.77;;;;;;;0.99;30.75;98231.03;5069483;28;20500;-65
2021/12/24 13:07:48;;;;;;;10.10;4.57;;;;;;;0.81;30.81;98238.69;5085404;28;20045;-64
2021/12/24 13:10:16;;;;;;;7.03;4.07;;;;;;;0.92;30.52;98217.66;5069792;28;20063;-65
2021/12/24 13:12:43;;;;;;;5.63;4.13;;;;;;;0.94;30.92;98231.41;5073130;28;20086;-65
2021/12/24 13:15:15;;;;;;;8.37;4.63;;;;;;;0.74;31.07;98247.16;5072255;28;20048;-64
2021/12/24 13:17:45;;;;;;;12.57;5.83;;;;;;;1.26;30.71;98220.78;5073842;28;20050;-65
2021/12/24 13:20:20;;;;;;;5.30;4.28;;;;;;;1.05;31.08;98217.41;5074347;28;20102;-65
2021/12/24 13:22:46;;;;;;;4.70;4.07;;;;;;;0.67;30.94;98217.28;5088755;28;20044;-65
2021/12/24 13:25:14;;;;;;;7.57;4.03;;;;;;;0.90;31.17;98229.19;5073501;28;20173;-65
2021/12/24 13:27:44;;;;;;;10.90;4.53;;;;;;;1.38;30.80;98204.81;5073728;28;20051;-64
2021/12/24 13:30:22;;;;;;;5.35;3.92;;;;;;;0.63;30.82;98221.13;5090929;28;20048;-65
2021/12/24 13:32:55;;;;;;;7.83;4.60;;;;;;;1.39;30.95;98188.19;5092654;28;20069;-65
2021/12/24 13:35:29;;;;;;;10.33;6.57;;;;;;;1.38;30.60;98210.06;5093367;28;20074;-64